sensor_id;sensor_type;location;lat;lon;timestamp;P1;durP1;ratioP1;P2;durP2;ratioP2
63555;SDS011;49700;48.072;7.800;2023-07-24T00:00:24;6.93;;;4.80;;
63555;SDS011;49700;48.072;7.800;2023-07-24T00:02:52;6.90;;;5.50;;
63555;SDS011;49700;48.072;7.800;2023-07-24T00:05:19;7.40;;;5.20;;
63555;SDS011;49700;48.072;7.800;2023-07-24T00:07:44;10.67;;;5.90;;
63555;SDS011;49700;48.072;7.800;2023-07-24T00:10:09;12.53;;;5.57;;
63555;SDS011;49700;48.072;7.800;2023-07-24T00:12:35;11.20;;;5.00;;
63555;SDS011;49700;48.072;7.800;2023-07-24T00:15:00;6.03;;;5.23;;
63555;SDS011;49700;48.072;7.800;2023-07-24T00:17:26;8.60;;;6.00;;
63555;SDS011;49700;48.072;7.800;2023-07-24T00:19:51;7.07;;;5.03;;
63555;SDS011;49700;48.072;7.800;2023-07-24T00:22:17;11.00;;;5.10;;
63555;SDS011;49700;48.072;7.800;2023-07-24T00:24:42;10.40;;;5.10;;
63555;SDS011;49700;48.072;7.800;2023-07-24T00:27:07;8.83;;;5.53;;
63555;SDS011;49700;48.072;7.800;2023-07-24T00:29:33;11.13;;;5.50;;
63555;SDS011;49700;48.072;7.800;2023-07-24T00:31:58;7.17;;;4.90;;
63555;SDS011;49700;48.072;7.800;2023-07-24T00:34:24;7.90;;;5.20;;
63555;SDS011;49700;48.072;7.800;2023-07-24T00:36:49;8.03;;;5.30;;
63555;SDS011;49700;48.072;7.800;2023-07-24T00:39:14;8.33;;;5.80;;
63555;SDS011;49700;48.072;7.800;2023-07-24T00:41:40;7.27;;;5.63;;
63555;SDS011;49700;48.072;7.800;2023-07-24T00:44:06;9.23;;;6.00;;
63555;SDS011;49700;48.072;7.800;2023-07-24T00:46:31;5.90;;;4.83;;
63555;SDS011;49700;48.072;7.800;2023-07-24T00:48:58;6.87;;;5.00;;
63555;SDS011;49700;48.072;7.800;2023-07-24T00:51:26;10.70;;;6.67;;
63555;SDS011;49700;48.072;7.800;2023-07-24T00:53:56;9.60;;;5.60;;
63555;SDS011;49700;48.072;7.800;2023-07-24T00:56:22;9.10;;;5.60;;
63555;SDS011;49700;48.072;7.800;2023-07-24T00:58:48;9.73;;;7.93;;
63555;SDS011;49700;48.072;7.800;2023-07-24T01:01:14;9.00;;;5.80;;
63555;SDS011;49700;48.072;7.800;2023-07-24T01:03:41;9.40;;;5.13;;
63555;SDS011;49700;48.072;7.800;2023-07-24T01:06:08;8.23;;;5.30;;
63555;SDS011;49700;48.072;7.800;2023-07-24T01:08:34;6.83;;;5.00;;
63555;SDS011;49700;48.072;7.800;2023-07-24T01:11:02;6.80;;;5.33;;
63555;SDS011;49700;48.072;7.800;2023-07-24T01:13:32;6.57;;;5.10;;
63555;SDS011;49700;48.072;7.800;2023-07-24T01:16:13;7.13;;;5.63;;
63555;SDS011;49700;48.072;7.800;2023-07-24T01:18:39;6.63;;;5.23;;
63555;SDS011;49700;48.072;7.800;2023-07-24T01:21:08;7.83;;;5.40;;
63555;SDS011;49700;48.072;7.800;2023-07-24T01:23:54;9.73;;;5.80;;
63555;SDS011;49700;48.072;7.800;2023-07-24T01:26:23;6.50;;;5.07;;
63555;SDS011;49700;48.072;7.800;2023-07-24T01:28:50;6.27;;;4.30;;
63555;SDS011;49700;48.072;7.800;2023-07-24T01:31:16;8.10;;;5.37;;
63555;SDS011;49700;48.072;7.800;2023-07-24T01:33:42;6.43;;;4.90;;
63555;SDS011;49700;48.072;7.800;2023-07-24T01:36:08;9.17;;;5.87;;
63555;SDS011;49700;48.072;7.800;2023-07-24T01:38:35;7.97;;;5.30;;
63555;SDS011;49700;48.072;7.800;2023-07-24T01:41:02;7.90;;;5.20;;
63555;SDS011;49700;48.072;7.800;2023-07-24T01:43:28;10.37;;;5.97;;
63555;SDS011;49700;48.072;7.800;2023-07-24T01:45:55;8.17;;;5.43;;
63555;SDS011;49700;48.072;7.800;2023-07-24T01:48:20;7.30;;;5.10;;
63555;SDS011;49700;48.072;7.800;2023-07-24T01:50:46;10.47;;;5.47;;
63555;SDS011;49700;48.072;7.800;2023-07-24T01:53:11;6.23;;;5.17;;
63555;SDS011;49700;48.072;7.800;2023-07-24T01:55:37;8.67;;;5.13;;
63555;SDS011;49700;48.072;7.800;2023-07-24T01:58:02;7.60;;;5.47;;
63555;SDS011;49700;48.072;7.800;2023-07-24T02:00:27;8.63;;;5.27;;
63555;SDS011;49700;48.072;7.800;2023-07-24T02:02:59;8.50;;;6.00;;
63555;SDS011;49700;48.072;7.800;2023-07-24T02:05:25;10.53;;;5.40;;
63555;SDS011;49700;48.072;7.800;2023-07-24T02:07:51;9.80;;;5.37;;
63555;SDS011;49700;48.072;7.800;2023-07-24T02:10:16;8.00;;;5.20;;
63555;SDS011;49700;48.072;7.800;2023-07-24T02:12:42;11.30;;;6.33;;
63555;SDS011;49700;48.072;7.800;2023-07-24T02:15:07;11.67;;;6.07;;
63555;SDS011;49700;48.072;7.800;2023-07-24T02:17:34;7.43;;;4.90;;
63555;SDS011;49700;48.072;7.800;2023-07-24T02:19:59;8.20;;;4.63;;
63555;SDS011;49700;48.072;7.800;2023-07-24T02:22:26;8.80;;;5.57;;
63555;SDS011;49700;48.072;7.800;2023-07-24T02:24:52;7.80;;;4.10;;
63555;SDS011;49700;48.072;7.800;2023-07-24T02:27:27;10.33;;;5.50;;
63555;SDS011;49700;48.072;7.800;2023-07-24T02:29:56;7.37;;;5.50;;
63555;SDS011;49700;48.072;7.800;2023-07-24T02:32:22;9.40;;;6.10;;
63555;SDS011;49700;48.072;7.800;2023-07-24T02:34:52;11.93;;;6.20;;
63555;SDS011;49700;48.072;7.800;2023-07-24T02:37:18;7.23;;;5.60;;
63555;SDS011;49700;48.072;7.800;2023-07-24T02:39:43;8.57;;;5.83;;
63555;SDS011;49700;48.072;7.800;2023-07-24T02:42:09;8.43;;;6.27;;
63555;SDS011;49700;48.072;7.800;2023-07-24T02:44:34;7.83;;;6.23;;
63555;SDS011;49700;48.072;7.800;2023-07-24T02:47:01;7.00;;;6.03;;
63555;SDS011;49700;48.072;7.800;2023-07-24T02:49:27;8.43;;;6.10;;
63555;SDS011;49700;48.072;7.800;2023-07-24T02:51:52;6.77;;;5.83;;
63555;SDS011;49700;48.072;7.800;2023-07-24T02:54:18;7.13;;;5.53;;
63555;SDS011;49700;48.072;7.800;2023-07-24T02:56:43;9.23;;;6.57;;
63555;SDS011;49700;48.072;7.800;2023-07-24T02:59:08;7.43;;;5.50;;
63555;SDS011;49700;48.072;7.800;2023-07-24T03:01:34;5.90;;;4.70;;
63555;SDS011;49700;48.072;7.800;2023-07-24T03:03:59;8.20;;;5.20;;
63555;SDS011;49700;48.072;7.800;2023-07-24T03:06:25;10.20;;;6.40;;
63555;SDS011;49700;48.072;7.800;2023-07-24T03:08:51;7.60;;;5.00;;
63555;SDS011;49700;48.072;7.800;2023-07-24T03:11:16;11.13;;;6.43;;
63555;SDS011;49700;48.072;7.800;2023-07-24T03:13:41;9.50;;;6.93;;
63555;SDS011;49700;48.072;7.800;2023-07-24T03:16:08;7.00;;;4.63;;
63555;SDS011;49700;48.072;7.800;2023-07-24T03:18:33;7.97;;;6.40;;
63555;SDS011;49700;48.072;7.800;2023-07-24T03:20:59;9.30;;;5.83;;
63555;SDS011;49700;48.072;7.800;2023-07-24T03:23:24;9.63;;;5.53;;
63555;SDS011;49700;48.072;7.800;2023-07-24T03:25:50;10.63;;;6.73;;
63555;SDS011;49700;48.072;7.800;2023-07-24T03:28:15;8.00;;;5.13;;
63555;SDS011;49700;48.072;7.800;2023-07-24T03:30:42;9.47;;;5.40;;
63555;SDS011;49700;48.072;7.800;2023-07-24T03:33:07;10.13;;;5.60;;
63555;SDS011;49700;48.072;7.800;2023-07-24T03:35:33;8.55;;;5.60;;
63555;SDS011;49700;48.072;7.800;2023-07-24T03:37:59;7.33;;;5.00;;
63555;SDS011;49700;48.072;7.800;2023-07-24T03:40:25;7.37;;;4.87;;
63555;SDS011;49700;48.072;7.800;2023-07-24T03:42:50;7.00;;;5.83;;
63555;SDS011;49700;48.072;7.800;2023-07-24T03:45:16;7.80;;;6.30;;
63555;SDS011;49700;48.072;7.800;2023-07-24T03:47:41;9.10;;;5.57;;
63555;SDS011;49700;48.072;7.800;2023-07-24T03:50:06;7.20;;;5.60;;
63555;SDS011;49700;48.072;7.800;2023-07-24T03:52:32;8.07;;;5.20;;
63555;SDS011;49700;48.072;7.800;2023-07-24T03:54:57;7.37;;;5.13;;
63555;SDS011;49700;48.072;7.800;2023-07-24T03:57:23;7.50;;;4.80;;
63555;SDS011;49700;48.072;7.800;2023-07-24T03:59:48;9.57;;;5.93;;
63555;SDS011;49700;48.072;7.800;2023-07-24T04:02:14;6.90;;;5.90;;
63555;SDS011;49700;48.072;7.800;2023-07-24T04:04:39;8.93;;;6.10;;
63555;SDS011;49700;48.072;7.800;2023-07-24T04:07:05;9.80;;;6.03;;
63555;SDS011;49700;48.072;7.800;2023-07-24T04:09:30;7.10;;;5.80;;
63555;SDS011;49700;48.072;7.800;2023-07-24T04:11:55;7.13;;;5.87;;
63555;SDS011;49700;48.072;7.800;2023-07-24T04:14:21;7.50;;;5.97;;
63555;SDS011;49700;48.072;7.800;2023-07-24T04:16:46;10.50;;;6.60;;
63555;SDS011;49700;48.072;7.800;2023-07-24T04:19:12;11.10;;;7.10;;
63555;SDS011;49700;48.072;7.800;2023-07-24T04:21:37;8.87;;;6.33;;
63555;SDS011;49700;48.072;7.800;2023-07-24T04:24:03;11.27;;;5.70;;
63555;SDS011;49700;48.072;7.800;2023-07-24T04:26:28;9.90;;;7.20;;
63555;SDS011;49700;48.072;7.800;2023-07-24T04:28:54;11.37;;;6.80;;
63555;SDS011;49700;48.072;7.800;2023-07-24T04:31:19;8.03;;;6.40;;
63555;SDS011;49700;48.072;7.800;2023-07-24T04:33:44;7.53;;;5.70;;
63555;SDS011;49700;48.072;7.800;2023-07-24T04:36:10;10.23;;;5.73;;
63555;SDS011;49700;48.072;7.800;2023-07-24T04:38:35;7.37;;;6.23;;
63555;SDS011;49700;48.072;7.800;2023-07-24T04:41:01;13.10;;;7.67;;
63555;SDS011;49700;48.072;7.800;2023-07-24T04:43:27;11.43;;;6.70;;
63555;SDS011;49700;48.072;7.800;2023-07-24T04:45:52;7.40;;;6.40;;
63555;SDS011;49700;48.072;7.800;2023-07-24T04:48:18;8.53;;;5.87;;
63555;SDS011;49700;48.072;7.800;2023-07-24T04:50:44;9.93;;;6.50;;
63555;SDS011;49700;48.072;7.800;2023-07-24T04:53:09;7.60;;;6.20;;
63555;SDS011;49700;48.072;7.800;2023-07-24T04:55:34;7.63;;;6.87;;
63555;SDS011;49700;48.072;7.800;2023-07-24T04:58:00;8.97;;;6.67;;
63555;SDS011;49700;48.072;7.800;2023-07-24T05:00:25;11.03;;;7.67;;
63555;SDS011;49700;48.072;7.800;2023-07-24T05:02:51;9.53;;;6.77;;
63555;SDS011;49700;48.072;7.800;2023-07-24T05:05:17;10.50;;;5.97;;
63555;SDS011;49700;48.072;7.800;2023-07-24T05:07:42;8.50;;;6.23;;
63555;SDS011;49700;48.072;7.800;2023-07-24T05:10:08;10.40;;;6.40;;
63555;SDS011;49700;48.072;7.800;2023-07-24T05:12:33;8.53;;;5.40;;
63555;SDS011;49700;48.072;7.800;2023-07-24T05:14:58;11.80;;;6.87;;
63555;SDS011;49700;48.072;7.800;2023-07-24T05:17:24;8.17;;;6.60;;
63555;SDS011;49700;48.072;7.800;2023-07-24T05:19:49;8.77;;;7.07;;
63555;SDS011;49700;48.072;7.800;2023-07-24T05:22:15;14.13;;;7.03;;
63555;SDS011;49700;48.072;7.800;2023-07-24T05:24:40;12.63;;;6.97;;
63555;SDS011;49700;48.072;7.800;2023-07-24T05:27:05;9.30;;;7.20;;
63555;SDS011;49700;48.072;7.800;2023-07-24T05:29:31;7.93;;;6.43;;
63555;SDS011;49700;48.072;7.800;2023-07-24T05:31:57;6.50;;;5.13;;
63555;SDS011;49700;48.072;7.800;2023-07-24T05:34:23;8.00;;;5.33;;
63555;SDS011;49700;48.072;7.800;2023-07-24T05:36:49;10.23;;;6.60;;
63555;SDS011;49700;48.072;7.800;2023-07-24T05:39:14;16.07;;;10.43;;
63555;SDS011;49700;48.072;7.800;2023-07-24T05:41:40;8.33;;;6.97;;
63555;SDS011;49700;48.072;7.800;2023-07-24T05:44:05;11.27;;;6.63;;
63555;SDS011;49700;48.072;7.800;2023-07-24T05:46:31;9.97;;;6.40;;
63555;SDS011;49700;48.072;7.800;2023-07-24T05:48:56;11.30;;;6.53;;
63555;SDS011;49700;48.072;7.800;2023-07-24T05:51:22;10.37;;;6.53;;
63555;SDS011;49700;48.072;7.800;2023-07-24T05:53:49;14.07;;;5.90;;
63555;SDS011;49700;48.072;7.800;2023-07-24T05:56:14;10.77;;;6.90;;
63555;SDS011;49700;48.072;7.800;2023-07-24T05:58:39;10.07;;;7.07;;
63555;SDS011;49700;48.072;7.800;2023-07-24T06:01:05;7.47;;;5.10;;
63555;SDS011;49700;48.072;7.800;2023-07-24T06:03:33;10.23;;;7.10;;
63555;SDS011;49700;48.072;7.800;2023-07-24T06:05:58;11.03;;;6.83;;
63555;SDS011;49700;48.072;7.800;2023-07-24T06:08:24;7.90;;;6.03;;
63555;SDS011;49700;48.072;7.800;2023-07-24T06:10:49;8.77;;;6.30;;
63555;SDS011;49700;48.072;7.800;2023-07-24T06:13:18;9.00;;;6.83;;
63555;SDS011;49700;48.072;7.800;2023-07-24T06:15:46;7.53;;;6.53;;
63555;SDS011;49700;48.072;7.800;2023-07-24T06:18:12;9.70;;;6.20;;
63555;SDS011;49700;48.072;7.800;2023-07-24T06:20:38;8.63;;;6.10;;
63555;SDS011;49700;48.072;7.800;2023-07-24T06:23:03;10.00;;;6.90;;
63555;SDS011;49700;48.072;7.800;2023-07-24T06:25:29;9.90;;;6.40;;
63555;SDS011;49700;48.072;7.800;2023-07-24T06:27:57;9.07;;;5.90;;
63555;SDS011;49700;48.072;7.800;2023-07-24T06:30:23;11.40;;;6.90;;
63555;SDS011;49700;48.072;7.800;2023-07-24T06:32:49;7.93;;;4.90;;
63555;SDS011;49700;48.072;7.800;2023-07-24T06:35:14;6.30;;;4.40;;
63555;SDS011;49700;48.072;7.800;2023-07-24T06:37:39;7.27;;;4.20;;
63555;SDS011;49700;48.072;7.800;2023-07-24T06:40:08;7.60;;;3.87;;
63555;SDS011;49700;48.072;7.800;2023-07-24T06:42:34;4.67;;;3.40;;
63555;SDS011;49700;48.072;7.800;2023-07-24T06:44:59;4.00;;;3.00;;
63555;SDS011;49700;48.072;7.800;2023-07-24T06:47:25;9.57;;;3.47;;
63555;SDS011;49700;48.072;7.800;2023-07-24T06:49:51;5.43;;;3.50;;
63555;SDS011;49700;48.072;7.800;2023-07-24T06:52:16;9.40;;;4.83;;
63555;SDS011;49700;48.072;7.800;2023-07-24T06:54:42;5.43;;;3.50;;
63555;SDS011;49700;48.072;7.800;2023-07-24T06:57:07;9.80;;;4.17;;
63555;SDS011;49700;48.072;7.800;2023-07-24T06:59:33;14.53;;;4.70;;
63555;SDS011;49700;48.072;7.800;2023-07-24T07:01:58;10.33;;;3.87;;
63555;SDS011;49700;48.072;7.800;2023-07-24T07:04:24;6.53;;;4.40;;
63555;SDS011;49700;48.072;7.800;2023-07-24T07:06:49;6.37;;;4.13;;
63555;SDS011;49700;48.072;7.800;2023-07-24T07:09:14;8.43;;;4.20;;
63555;SDS011;49700;48.072;7.800;2023-07-24T07:11:40;5.10;;;3.30;;
63555;SDS011;49700;48.072;7.800;2023-07-24T07:14:05;6.60;;;5.53;;
63555;SDS011;49700;48.072;7.800;2023-07-24T07:16:33;8.80;;;4.07;;
63555;SDS011;49700;48.072;7.800;2023-07-24T07:18:59;5.53;;;3.90;;
63555;SDS011;49700;48.072;7.800;2023-07-24T07:21:24;4.70;;;3.60;;
63555;SDS011;49700;48.072;7.800;2023-07-24T07:23:50;4.90;;;4.07;;
63555;SDS011;49700;48.072;7.800;2023-07-24T07:26:16;7.10;;;4.10;;
63555;SDS011;49700;48.072;7.800;2023-07-24T07:28:42;7.20;;;4.17;;
63555;SDS011;49700;48.072;7.800;2023-07-24T07:31:10;5.93;;;3.70;;
63555;SDS011;49700;48.072;7.800;2023-07-24T07:33:35;6.90;;;4.20;;
63555;SDS011;49700;48.072;7.800;2023-07-24T07:36:03;7.25;;;4.90;;
63555;SDS011;49700;48.072;7.800;2023-07-24T07:38:31;5.00;;;3.60;;
63555;SDS011;49700;48.072;7.800;2023-07-24T07:41:03;4.87;;;3.90;;
63555;SDS011;49700;48.072;7.800;2023-07-24T07:43:29;5.07;;;4.13;;
63555;SDS011;49700;48.072;7.800;2023-07-24T07:45:55;5.20;;;4.20;;
63555;SDS011;49700;48.072;7.800;2023-07-24T07:48:21;5.70;;;4.87;;
63555;SDS011;49700;48.072;7.800;2023-07-24T07:50:51;6.47;;;4.23;;
63555;SDS011;49700;48.072;7.800;2023-07-24T07:53:17;6.07;;;3.90;;
63555;SDS011;49700;48.072;7.800;2023-07-24T07:55:42;6.63;;;4.23;;
63555;SDS011;49700;48.072;7.800;2023-07-24T07:58:08;6.53;;;4.17;;
63555;SDS011;49700;48.072;7.800;2023-07-24T08:00:34;7.00;;;3.83;;
63555;SDS011;49700;48.072;7.800;2023-07-24T08:02:59;6.67;;;4.13;;
63555;SDS011;49700;48.072;7.800;2023-07-24T08:05:25;5.07;;;3.80;;
63555;SDS011;49700;48.072;7.800;2023-07-24T08:07:50;6.03;;;3.30;;
63555;SDS011;49700;48.072;7.800;2023-07-24T08:10:15;4.07;;;3.40;;
63555;SDS011;49700;48.072;7.800;2023-07-24T08:12:42;5.27;;;4.20;;
63555;SDS011;49700;48.072;7.800;2023-07-24T08:15:07;8.57;;;4.67;;
63555;SDS011;49700;48.072;7.800;2023-07-24T08:17:33;11.80;;;6.10;;
63555;SDS011;49700;48.072;7.800;2023-07-24T08:19:59;6.43;;;3.97;;
63555;SDS011;49700;48.072;7.800;2023-07-24T08:22:24;7.70;;;5.40;;
63555;SDS011;49700;48.072;7.800;2023-07-24T08:24:50;5.37;;;4.77;;
63555;SDS011;49700;48.072;7.800;2023-07-24T08:27:16;4.23;;;3.63;;
63555;SDS011;49700;48.072;7.800;2023-07-24T08:29:42;6.80;;;4.33;;
63555;SDS011;49700;48.072;7.800;2023-07-24T08:32:07;4.93;;;4.30;;
63555;SDS011;49700;48.072;7.800;2023-07-24T08:34:33;7.40;;;4.70;;
63555;SDS011;49700;48.072;7.800;2023-07-24T08:36:58;7.10;;;5.20;;
63555;SDS011;49700;48.072;7.800;2023-07-24T08:39:23;5.47;;;3.80;;
63555;SDS011;49700;48.072;7.800;2023-07-24T08:41:49;6.57;;;4.20;;
63555;SDS011;49700;48.072;7.800;2023-07-24T08:44:14;6.47;;;3.90;;
63555;SDS011;49700;48.072;7.800;2023-07-24T08:46:41;6.03;;;4.27;;
63555;SDS011;49700;48.072;7.800;2023-07-24T08:49:14;5.17;;;4.03;;
63555;SDS011;49700;48.072;7.800;2023-07-24T08:51:40;6.30;;;4.20;;
63555;SDS011;49700;48.072;7.800;2023-07-24T08:54:06;5.90;;;3.57;;
63555;SDS011;49700;48.072;7.800;2023-07-24T08:56:33;12.63;;;11.20;;
63555;SDS011;49700;48.072;7.800;2023-07-24T08:58:58;11.70;;;7.67;;
63555;SDS011;49700;48.072;7.800;2023-07-24T09:01:24;8.40;;;6.33;;
63555;SDS011;49700;48.072;7.800;2023-07-24T09:03:49;18.60;;;11.20;;
63555;SDS011;49700;48.072;7.800;2023-07-24T09:06:15;7.80;;;5.93;;
63555;SDS011;49700;48.072;7.800;2023-07-24T09:08:41;8.37;;;5.80;;
63555;SDS011;49700;48.072;7.800;2023-07-24T09:11:08;9.83;;;5.93;;
63555;SDS011;49700;48.072;7.800;2023-07-24T09:13:35;7.97;;;5.13;;
63555;SDS011;49700;48.072;7.800;2023-07-24T09:16:02;10.33;;;5.70;;
63555;SDS011;49700;48.072;7.800;2023-07-24T09:18:38;8.70;;;6.63;;
63555;SDS011;49700;48.072;7.800;2023-07-24T09:21:09;7.17;;;4.40;;
63555;SDS011;49700;48.072;7.800;2023-07-24T09:23:38;5.20;;;3.97;;
63555;SDS011;49700;48.072;7.800;2023-07-24T09:26:08;8.07;;;4.60;;
63555;SDS011;49700;48.072;7.800;2023-07-24T09:28:34;6.30;;;4.60;;
63555;SDS011;49700;48.072;7.800;2023-07-24T09:31:00;7.27;;;5.70;;
63555;SDS011;49700;48.072;7.800;2023-07-24T09:33:36;6.83;;;4.80;;
63555;SDS011;49700;48.072;7.800;2023-07-24T09:36:03;9.75;;;5.40;;
63555;SDS011;49700;48.072;7.800;2023-07-24T09:38:29;8.10;;;5.13;;
63555;SDS011;49700;48.072;7.800;2023-07-24T09:40:55;10.23;;;4.90;;
63555;SDS011;49700;48.072;7.800;2023-07-24T09:43:22;8.20;;;5.00;;
63555;SDS011;49700;48.072;7.800;2023-07-24T09:45:49;9.00;;;4.70;;
63555;SDS011;49700;48.072;7.800;2023-07-24T09:48:17;8.50;;;5.70;;
63555;SDS011;49700;48.072;7.800;2023-07-24T09:50:47;7.50;;;5.00;;
63555;SDS011;49700;48.072;7.800;2023-07-24T09:55:49;7.60;;;4.27;;
63555;SDS011;49700;48.072;7.800;2023-07-24T09:58:24;7.57;;;4.67;;
63555;SDS011;49700;48.072;7.800;2023-07-24T10:00:51;7.03;;;5.23;;
63555;SDS011;49700;48.072;7.800;2023-07-24T10:03:17;5.80;;;4.53;;
63555;SDS011;49700;48.072;7.800;2023-07-24T10:05:46;8.20;;;5.00;;
63555;SDS011;49700;48.072;7.800;2023-07-24T10:08:16;7.23;;;5.63;;
63555;SDS011;49700;48.072;7.800;2023-07-24T10:10:42;7.17;;;4.30;;
63555;SDS011;49700;48.072;7.800;2023-07-24T10:13:09;5.63;;;3.27;;
63555;SDS011;49700;48.072;7.800;2023-07-24T10:15:39;3.90;;;3.30;;
63555;SDS011;49700;48.072;7.800;2023-07-24T10:18:06;6.97;;;3.30;;
63555;SDS011;49700;48.072;7.800;2023-07-24T10:20:33;3.20;;;2.47;;
63555;SDS011;49700;48.072;7.800;2023-07-24T10:23:07;3.60;;;2.10;;
63555;SDS011;49700;48.072;7.800;2023-07-24T10:25:34;5.90;;;2.83;;
63555;SDS011;49700;48.072;7.800;2023-07-24T10:28:11;2.80;;;2.50;;
63555;SDS011;49700;48.072;7.800;2023-07-24T10:30:38;3.20;;;2.80;;
63555;SDS011;49700;48.072;7.800;2023-07-24T10:33:08;4.37;;;3.20;;
63555;SDS011;49700;48.072;7.800;2023-07-24T10:35:46;3.20;;;2.27;;
63555;SDS011;49700;48.072;7.800;2023-07-24T10:38:33;6.80;;;3.33;;
63555;SDS011;49700;48.072;7.800;2023-07-24T10:41:01;4.23;;;2.57;;
63555;SDS011;49700;48.072;7.800;2023-07-24T10:43:28;4.43;;;2.83;;
63555;SDS011;49700;48.072;7.800;2023-07-24T10:45:54;5.20;;;2.47;;
63555;SDS011;49700;48.072;7.800;2023-07-24T10:48:20;5.23;;;2.90;;
63555;SDS011;49700;48.072;7.800;2023-07-24T10:50:48;5.27;;;3.17;;
63555;SDS011;49700;48.072;7.800;2023-07-24T10:53:16;4.37;;;3.80;;
63555;SDS011;49700;48.072;7.800;2023-07-24T10:55:43;3.90;;;2.60;;
63555;SDS011;49700;48.072;7.800;2023-07-24T10:58:10;4.37;;;2.47;;
63555;SDS011;49700;48.072;7.800;2023-07-24T11:00:40;2.90;;;2.23;;
63555;SDS011;49700;48.072;7.800;2023-07-24T11:03:12;5.27;;;2.73;;
63555;SDS011;49700;48.072;7.800;2023-07-24T11:05:42;4.03;;;2.50;;
63555;SDS011;49700;48.072;7.800;2023-07-24T11:08:10;4.73;;;3.60;;
63555;SDS011;49700;48.072;7.800;2023-07-24T11:10:46;5.57;;;3.40;;
63555;SDS011;49700;48.072;7.800;2023-07-24T11:13:22;2.57;;;2.20;;
63555;SDS011;49700;48.072;7.800;2023-07-24T11:15:49;3.10;;;2.33;;
63555;SDS011;49700;48.072;7.800;2023-07-24T11:18:18;5.07;;;2.80;;
63555;SDS011;49700;48.072;7.800;2023-07-24T11:20:50;5.20;;;2.77;;
63555;SDS011;49700;48.072;7.800;2023-07-24T11:23:17;2.90;;;2.33;;
63555;SDS011;49700;48.072;7.800;2023-07-24T11:25:44;4.73;;;3.00;;
63555;SDS011;49700;48.072;7.800;2023-07-24T11:28:13;3.93;;;2.10;;
63555;SDS011;49700;48.072;7.800;2023-07-24T11:30:39;4.00;;;2.87;;
63555;SDS011;49700;48.072;7.800;2023-07-24T11:33:09;2.90;;;2.07;;
63555;SDS011;49700;48.072;7.800;2023-07-24T11:35:36;4.50;;;3.03;;
63555;SDS011;49700;48.072;7.800;2023-07-24T11:38:06;2.47;;;2.17;;
63555;SDS011;49700;48.072;7.800;2023-07-24T11:40:42;2.60;;;1.83;;
63555;SDS011;49700;48.072;7.800;2023-07-24T11:43:16;3.00;;;2.43;;
63555;SDS011;49700;48.072;7.800;2023-07-24T11:45:46;3.40;;;2.10;;
63555;SDS011;49700;48.072;7.800;2023-07-24T11:48:22;3.40;;;2.37;;
63555;SDS011;49700;48.072;7.800;2023-07-24T11:50:56;2.67;;;2.33;;
63555;SDS011;49700;48.072;7.800;2023-07-24T11:53:25;4.40;;;2.30;;
63555;SDS011;49700;48.072;7.800;2023-07-24T11:55:52;3.80;;;2.70;;
63555;SDS011;49700;48.072;7.800;2023-07-24T11:58:19;2.90;;;2.10;;
63555;SDS011;49700;48.072;7.800;2023-07-24T12:00:46;2.87;;;1.90;;
63555;SDS011;49700;48.072;7.800;2023-07-24T12:03:22;3.30;;;2.40;;
63555;SDS011;49700;48.072;7.800;2023-07-24T12:05:53;3.28;;;2.72;;
63555;SDS011;49700;48.072;7.800;2023-07-24T12:08:29;2.33;;;2.07;;
63555;SDS011;49700;48.072;7.800;2023-07-24T12:10:56;3.67;;;2.33;;
63555;SDS011;49700;48.072;7.800;2023-07-24T12:13:21;4.53;;;2.80;;
63555;SDS011;49700;48.072;7.800;2023-07-24T12:15:47;3.90;;;2.70;;
63555;SDS011;49700;48.072;7.800;2023-07-24T12:18:13;3.77;;;2.73;;
63555;SDS011;49700;48.072;7.800;2023-07-24T12:20:39;2.90;;;1.90;;
63555;SDS011;49700;48.072;7.800;2023-07-24T12:23:05;3.17;;;2.30;;
63555;SDS011;49700;48.072;7.800;2023-07-24T12:25:30;2.83;;;2.30;;
63555;SDS011;49700;48.072;7.800;2023-07-24T12:27:56;3.07;;;2.70;;
63555;SDS011;49700;48.072;7.800;2023-07-24T12:30:21;4.73;;;3.30;;
63555;SDS011;49700;48.072;7.800;2023-07-24T12:32:47;4.07;;;2.57;;
63555;SDS011;49700;48.072;7.800;2023-07-24T12:35:12;3.33;;;2.25;;
63555;SDS011;49700;48.072;7.800;2023-07-24T12:37:38;5.10;;;3.17;;
63555;SDS011;49700;48.072;7.800;2023-07-24T12:40:07;3.63;;;2.20;;
63555;SDS011;49700;48.072;7.800;2023-07-24T12:42:33;3.10;;;2.40;;
63555;SDS011;49700;48.072;7.800;2023-07-24T12:44:58;3.13;;;2.80;;
63555;SDS011;49700;48.072;7.800;2023-07-24T12:47:24;3.90;;;2.70;;
63555;SDS011;49700;48.072;7.800;2023-07-24T12:49:49;3.30;;;2.10;;
63555;SDS011;49700;48.072;7.800;2023-07-24T12:52:16;3.70;;;2.13;;
63555;SDS011;49700;48.072;7.800;2023-07-24T12:54:42;2.80;;;2.20;;
63555;SDS011;49700;48.072;7.800;2023-07-24T12:57:07;3.40;;;2.00;;
63555;SDS011;49700;48.072;7.800;2023-07-24T12:59:33;2.90;;;2.37;;
63555;SDS011;49700;48.072;7.800;2023-07-24T13:01:58;3.03;;;2.20;;
63555;SDS011;49700;48.072;7.800;2023-07-24T13:04:23;4.30;;;2.70;;
63555;SDS011;49700;48.072;7.800;2023-07-24T13:06:49;4.03;;;2.27;;
63555;SDS011;49700;48.072;7.800;2023-07-24T13:09:14;5.00;;;3.27;;
63555;SDS011;49700;48.072;7.800;2023-07-24T13:11:40;4.57;;;2.43;;
63555;SDS011;49700;48.072;7.800;2023-07-24T13:14:05;3.40;;;3.10;;
63555;SDS011;49700;48.072;7.800;2023-07-24T13:16:31;3.03;;;2.23;;
63555;SDS011;49700;48.072;7.800;2023-07-24T13:18:56;4.17;;;2.10;;
63555;SDS011;49700;48.072;7.800;2023-07-24T13:21:22;5.37;;;2.43;;
63555;SDS011;49700;48.072;7.800;2023-07-24T13:23:48;4.10;;;2.27;;
63555;SDS011;49700;48.072;7.800;2023-07-24T13:26:14;2.97;;;2.00;;
63555;SDS011;49700;48.072;7.800;2023-07-24T13:28:40;2.83;;;2.53;;
63555;SDS011;49700;48.072;7.800;2023-07-24T13:31:13;3.20;;;2.10;;
63555;SDS011;49700;48.072;7.800;2023-07-24T13:33:42;3.00;;;2.40;;
63555;SDS011;49700;48.072;7.800;2023-07-24T13:36:08;3.70;;;2.70;;
63555;SDS011;49700;48.072;7.800;2023-07-24T13:38:34;3.33;;;2.87;;
63555;SDS011;49700;48.072;7.800;2023-07-24T13:41:00;3.57;;;3.13;;
63555;SDS011;49700;48.072;7.800;2023-07-24T13:43:26;3.93;;;3.00;;
63555;SDS011;49700;48.072;7.800;2023-07-24T13:45:52;3.90;;;3.47;;
63555;SDS011;49700;48.072;7.800;2023-07-24T13:48:18;3.97;;;3.07;;
63555;SDS011;49700;48.072;7.800;2023-07-24T13:50:43;4.10;;;2.97;;
63555;SDS011;49700;48.072;7.800;2023-07-24T13:53:09;4.77;;;3.60;;
63555;SDS011;49700;48.072;7.800;2023-07-24T13:55:34;3.80;;;3.40;;
63555;SDS011;49700;48.072;7.800;2023-07-24T13:58:00;7.30;;;4.13;;
63555;SDS011;49700;48.072;7.800;2023-07-24T14:00:25;6.37;;;3.30;;
63555;SDS011;49700;48.072;7.800;2023-07-24T14:02:51;5.10;;;3.70;;
63555;SDS011;49700;48.072;7.800;2023-07-24T14:05:16;5.70;;;3.53;;
63555;SDS011;49700;48.072;7.800;2023-07-24T14:07:42;6.70;;;3.57;;
63555;SDS011;49700;48.072;7.800;2023-07-24T14:10:08;3.80;;;3.50;;
63555;SDS011;49700;48.072;7.800;2023-07-24T14:12:33;5.47;;;4.20;;
63555;SDS011;49700;48.072;7.800;2023-07-24T14:14:59;4.90;;;3.50;;
63555;SDS011;49700;48.072;7.800;2023-07-24T14:17:24;4.70;;;3.80;;
63555;SDS011;49700;48.072;7.800;2023-07-24T14:19:50;4.63;;;3.80;;
63555;SDS011;49700;48.072;7.800;2023-07-24T14:22:15;5.30;;;4.07;;
63555;SDS011;49700;48.072;7.800;2023-07-24T14:24:40;6.43;;;4.90;;
63555;SDS011;49700;48.072;7.800;2023-07-24T14:27:06;6.90;;;4.53;;
63555;SDS011;49700;48.072;7.800;2023-07-24T14:29:34;6.13;;;4.00;;
63555;SDS011;49700;48.072;7.800;2023-07-24T14:31:59;8.10;;;3.90;;
63555;SDS011;49700;48.072;7.800;2023-07-24T14:34:25;6.80;;;4.20;;
63555;SDS011;49700;48.072;7.800;2023-07-24T14:36:50;4.90;;;3.60;;
63555;SDS011;49700;48.072;7.800;2023-07-24T14:39:17;5.13;;;4.07;;
63555;SDS011;49700;48.072;7.800;2023-07-24T14:41:43;7.63;;;3.47;;
63555;SDS011;49700;48.072;7.800;2023-07-24T14:44:08;4.27;;;3.80;;